Time;durP1;ratioP1;P1;durP2;ratioP2;P2;SDS_P1;SDS_P2;PMS_P1;PMS_P2;Temp;Humidity;BMP_temperature;BMP_pressure;BME280_temperature;BME280_humidity;BME280_pressure;Samples;Min_cycle;Max_cycle;Signal;HPM_P1;HPM_P2
2023/07/17 00:01:50;;;;;;;27.92;16.60;;;;;;;;;;6197209;28;20401;-60
2023/07/17 00:04:50;;;;;;;25.43;17.20;;;;;;;;;;6197371;28;20060;-60
2023/07/17 00:07:51;;;;;;;26.33;16.87;;;;;;;;;;6195817;28;20982;-59
2023/07/17 00:10:51;;;;;;;28.07;16.13;;;;;;;;;;6193384;28;20065;-59
2023/07/17 00:13:52;;;;;;;25.37;16.50;;;;;;;;;;6195909;28;20415;-60
2023/07/17 00:16:53;;;;;;;26.70;17.03;;;;;;;;;;6196543;28;20057;-59
2023/07/17 00:19:55;;;;;;;26.60;17.03;;;;;;;;;;6195370;28;20042;-59
2023/07/17 00:22:55;;;;;;;25.92;16.45;;;;;;;;;;6196406;28;20050;-60
2023/07/17 00:25:56;;;;;;;28.60;18.13;;;;;;;;;;6198610;28;20046;-58
2023/07/17 00:29:23;;;;;;;29.33;17.07;;;;;;;;;;6194896;28;20059;-60
2023/07/17 00:32:24;;;;;;;26.73;16.48;;;;;;;;;;6200139;28;20525;-60
2023/07/17 00:35:24;;;;;;;25.40;15.57;;;;;;;;;;6197059;28;20057;-58
2023/07/17 00:38:25;;;;;;;25.23;16.93;;;;;;;;;;6198725;28;20050;-60
2023/07/17 00:41:25;;;;;;;29.10;17.17;;;;;;;;;;6199426;28;20049;-60
2023/07/17 00:44:26;;;;;;;23.60;16.47;;;;;;;;;;6196327;28;20498;-59
2023/07/17 00:47:29;;;;;;;25.83;17.20;;;;;;;;;;6197131;28;20497;-60
2023/07/17 00:50:30;;;;;;;31.70;18.35;;;;;;;;;;6197749;28;20495;-55
2023/07/17 00:53:31;;;;;;;26.83;17.05;;;;;;;;;;6194461;28;20129;-59
2023/07/17 00:56:32;;;;;;;29.57;18.33;;;;;;;;;;6197318;28;20464;-58
2023/07/17 00:59:33;;;;;;;;;;;;;;;;;;6198630;28;20053;-60
2023/07/17 01:02:37;;;;;;;27.13;17.27;;;;;;;;;;6197437;28;19929;-58
2023/07/17 01:05:37;;;;;;;26.83;17.13;;;;;;;;;;6196377;28;20194;-59
2023/07/17 01:08:38;;;;;;;25.17;16.90;;;;;;;;;;6195705;28;20090;-56
2023/07/17 01:11:39;;;;;;;28.17;16.77;;;;;;;;;;6177964;28;20046;-60
2023/07/17 01:14:40;;;;;;;25.10;16.50;;;;;;;;;;6194359;28;20486;-56
2023/07/17 01:17:40;;;;;;;24.37;16.63;;;;;;;;;;6198602;28;20390;-60
2023/07/17 01:20:41;;;;;;;23.40;16.13;;;;;;;;;;6197211;28;20057;-61
2023/07/17 01:23:44;;;;;;;25.97;16.70;;;;;;;;;;6193131;28;20042;-60
2023/07/17 01:26:44;;;;;;;25.40;16.52;;;;;;;;;;6197651;28;20058;-60
2023/07/17 01:29:45;;;;;;;25.73;17.57;;;;;;;;;;6195266;28;20434;-60
2023/07/17 01:32:46;;;;;;;26.67;17.53;;;;;;;;;;6196006;28;20112;-60
2023/07/17 01:35:47;;;;;;;;;;;;;;;;;;6193104;28;20226;-59
2023/07/17 01:38:48;;;;;;;27.27;17.13;;;;;;;;;;6194100;28;22128;-60
2023/07/17 01:41:49;;;;;;;26.03;16.90;;;;;;;;;;6194474;28;20046;-59
2023/07/17 01:44:50;;;;;;;;;;;;;;;;;;6195782;28;20243;-59
2023/07/17 01:47:50;;;;;;;27.03;17.37;;;;;;;;;;6195665;28;19925;-60
2023/07/17 01:50:51;;;;;;;24.57;16.07;;;;;;;;;;6196367;28;20042;-61
2023/07/17 01:53:51;;;;;;;25.70;17.00;;;;;;;;;;6192548;28;20050;-57
2023/07/17 01:56:52;;;;;;;27.40;17.03;;;;;;;;;;6195205;28;20046;-60
2023/07/17 01:59:53;;;;;;;25.23;16.87;;;;;;;;;;6194777;28;20872;-59
2023/07/17 02:02:53;;;;;;;25.97;16.90;;;;;;;;;;6189473;28;20065;-58
2023/07/17 02:05:54;;;;;;;24.80;17.37;;;;;;;;;;6195114;28;20410;-59
2023/07/17 02:08:55;;;;;;;28.00;18.00;;;;;;;;;;6191672;28;20050;-56
2023/07/17 02:11:56;;;;;;;29.40;17.33;;;;;;;;;;6196816;28;20054;-60
2023/07/17 02:14:56;;;;;;;27.97;16.93;;;;;;;;;;6192345;28;20062;-60
2023/07/17 02:17:57;;;;;;;30.07;19.40;;;;;;;;;;6194602;28;20057;-59
2023/07/17 02:20:57;;;;;;;25.10;16.97;;;;;;;;;;6196097;28;20076;-60
2023/07/17 02:23:58;;;;;;;24.73;16.00;;;;;;;;;;6194291;28;20038;-55
2023/07/17 02:27:00;;;;;;;29.30;16.83;;;;;;;;;;6195607;28;20045;-60
2023/07/17 02:30:01;;;;;;;30.48;18.52;;;;;;;;;;6192049;28;20380;-61
2023/07/17 02:33:02;;;;;;;29.92;18.30;;;;;;;;;;6192698;28;20038;-59
2023/07/17 02:36:03;;;;;;;28.02;17.50;;;;;;;;;;6195519;28;20073;-60
2023/07/17 02:39:04;;;;;;;31.38;17.33;;;;;;;;;;6195025;28;20256;-59
2023/07/17 02:42:05;;;;;;;32.03;18.23;;;;;;;;;;6195800;28;20058;-60
2023/07/17 02:45:09;;;;;;;33.67;18.73;;;;;;;;;;6194148;28;20050;-60
2023/07/17 02:48:09;;;;;;;28.05;19.30;;;;;;;;;;6195289;28;20116;-57
2023/07/17 02:51:10;;;;;;;28.48;18.40;;;;;;;;;;6196006;28;20502;-60
2023/07/17 02:54:12;;;;;;;26.90;17.63;;;;;;;;;;6193304;28;20045;-59
2023/07/17 02:57:14;;;;;;;29.90;18.73;;;;;;;;;;6195772;28;20148;-60
2023/07/17 03:00:17;;;;;;;29.98;18.35;;;;;;;;;;6178289;28;20511;-59
2023/07/17 03:03:17;;;;;;;28.65;18.40;;;;;;;;;;6193662;28;20115;-59
2023/07/17 03:06:18;;;;;;;30.20;19.20;;;;;;;;;;6193324;28;20050;-58
2023/07/17 03:09:19;;;;;;;31.70;18.73;;;;;;;;;;6191824;28;20054;-60
2023/07/17 03:12:19;;;;;;;26.90;18.10;;;;;;;;;;6194796;28;20394;-61
2023/07/17 03:15:20;;;;;;;31.43;18.50;;;;;;;;;;6195067;28;20054;-61
2023/07/17 03:18:20;;;;;;;26.23;17.43;;;;;;;;;;6198492;28;20050;-60
2023/07/17 03:21:22;;;;;;;26.00;17.00;;;;;;;;;;6197563;28;20116;-59
2023/07/17 03:24:23;;;;;;;;;;;;;;;;;;6200837;28;20096;-60
2023/07/17 03:27:23;;;;;;;25.58;17.35;;;;;;;;;;6197398;28;19975;-59
2023/07/17 03:30:24;;;;;;;30.83;17.70;;;;;;;;;;6198425;28;20573;-57
2023/07/17 03:33:25;;;;;;;28.97;17.43;;;;;;;;;;6197166;28;20046;-59
2023/07/17 03:36:25;;;;;;;30.13;18.17;;;;;;;;;;6198571;28;20062;-59
2023/07/17 03:39:26;;;;;;;29.50;18.07;;;;;;;;;;6196087;28;20909;-60
2023/07/17 03:42:26;;;;;;;25.97;18.23;;;;;;;;;;6196436;28;20456;-58
2023/07/17 03:45:27;;;;;;;30.50;18.47;;;;;;;;;;6198533;28;21400;-59
2023/07/17 03:48:28;;;;;;;30.03;19.10;;;;;;;;;;6203543;28;20592;-61
2023/07/17 03:51:28;;;;;;;38.57;20.13;;;;;;;;;;6208034;28;20501;-59
2023/07/17 03:54:29;;;;;;;35.73;20.70;;;;;;;;;;6199476;28;20050;-61
2023/07/17 03:57:30;;;;;;;32.23;20.10;;;;;;;;;;6212100;28;20391;-60
2023/07/17 04:00:30;;;;;;;35.93;20.63;;;;;;;;;;6206871;28;20661;-57
2023/07/17 04:03:31;;;;;;;31.40;19.57;;;;;;;;;;6211043;28;20056;-60
2023/07/17 04:06:32;;;;;;;34.37;19.83;;;;;;;;;;6207801;28;20109;-59
2023/07/17 04:09:32;;;;;;;34.03;21.00;;;;;;;;;;6211566;28;20489;-59
2023/07/17 04:12:33;;;;;;;34.40;21.43;;;;;;;;;;6211420;28;20211;-61
2023/07/17 04:15:35;;;;;;;38.30;23.77;;;;;;;;;;6197353;28;20062;-54
2023/07/17 04:18:35;;;;;;;42.00;25.08;;;;;;;;;;6203468;28;20593;-59
2023/07/17 04:21:36;;;;;;;40.23;24.27;;;;;;;;;;6202175;28;20049;-59
2023/07/17 04:24:36;;;;;;;42.57;24.37;;;;;;;;;;6204539;28;20566;-58
2023/07/17 04:27:37;;;;;;;42.90;25.97;;;;;;;;;;6199626;28;20132;-61
2023/07/17 04:30:37;;;;;;;43.13;25.17;;;;;;;;;;6210112;28;20057;-60
2023/07/17 04:33:38;;;;;;;48.63;26.37;;;;;;;;;;6195581;28;20056;-60
2023/07/17 04:36:39;;;;;;;44.33;26.47;;;;;;;;;;6196927;28;20561;-60
2023/07/17 04:39:39;;;;;;;46.63;27.77;;;;;;;;;;6200792;28;20560;-57
2023/07/17 04:42:40;;;;;;;46.60;27.50;;;;;;;;;;6200101;28;20050;-58
2023/07/17 04:45:42;;;;;;;47.53;27.30;;;;;;;;;;6198658;28;20128;-57
2023/07/17 04:48:43;;;;;;;49.42;27.25;;;;;;;;;;6197065;28;20050;-60
2023/07/17 04:51:43;;;;;;;44.50;26.70;;;;;;;;;;6199987;28;20074;-57
2023/07/17 04:54:44;;;;;;;46.63;26.77;;;;;;;;;;6194438;28;20046;-57
2023/07/17 04:57:45;;;;;;;45.50;24.33;;;;;;;;;;6199773;28;20905;-60
2023/07/17 05:00:47;;;;;;;43.03;24.90;;;;;;;;;;6198030;28;20057;-61
2023/07/17 05:03:47;;;;;;;51.78;26.52;;;;;;;;;;6194438;28;20908;-61
2023/07/17 05:06:48;;;;;;;36.50;20.97;;;;;;;;;;6194844;28;20136;-61
2023/07/17 05:09:48;;;;;;;39.90;20.13;;;;;;;;;;6203319;28;20066;-56
2023/07/17 05:12:49;;;;;;;39.93;15.47;;;;;;;;;;6203471;28;20045;-52
2023/07/17 05:15:50;;;;;;;27.53;12.87;;;;;;;;;;6199242;28;20056;-53
2023/07/17 05:18:51;;;;;;;23.92;14.27;;;;;;;;;;6197657;28;20097;-51
2023/07/17 05:21:51;;;;;;;29.03;13.70;;;;;;;;;;6197998;28;20042;-51
2023/07/17 05:24:52;;;;;;;25.67;13.23;;;;;;;;;;6193894;28;20322;-53
2023/07/17 05:27:53;;;;;;;28.40;14.07;;;;;;;;;;6200618;28;20038;-58
2023/07/17 05:30:54;;;;;;;30.03;16.67;;;;;;;;;;6197078;28;20057;-55
2023/07/17 05:33:56;;;;;;;31.40;16.80;;;;;;;;;;6197776;28;20521;-54
2023/07/17 05:36:56;;;;;;;31.97;18.80;;;;;;;;;;6197772;28;20049;-51
2023/07/17 05:39:57;;;;;;;30.50;16.80;;;;;;;;;;6195923;28;20073;-56
2023/07/17 05:42:57;;;;;;;34.97;18.57;;;;;;;;;;6198763;28;20042;-51
2023/07/17 05:45:58;;;;;;;38.53;20.73;;;;;;;;;;6197789;28;20042;-57
2023/07/17 05:48:59;;;;;;;42.87;20.87;;;;;;;;;;6200518;28;20042;-54
2023/07/17 05:51:59;;;;;;;44.83;22.03;;;;;;;;;;6203555;28;20101;-54
2023/07/17 05:55:00;;;;;;;46.73;22.27;;;;;;;;;;6196913;28;20049;-53
2023/07/17 05:58:01;;;;;;;42.40;23.47;;;;;;;;;;6200304;28;20107;-51
2023/07/17 06:01:02;;;;;;;45.38;24.15;;;;;;;;;;6198313;28;20477;-51
2023/07/17 06:04:02;;;;;;;44.63;25.03;;;;;;;;;;6197129;28;20053;-52
2023/07/17 06:07:04;;;;;;;44.63;25.13;;;;;;;;;;6191767;28;20041;-53
2023/07/17 06:10:05;;;;;;;;;;;;;;;;;;6195809;28;20050;-51
2023/07/17 06:13:06;;;;;;;49.80;26.13;;;;;;;;;;6194410;28;20289;-54
2023/07/17 06:16:06;;;;;;;48.27;25.17;;;;;;;;;;6193352;28;20144;-55
2023/07/17 06:19:07;;;;;;;47.60;24.90;;;;;;;;;;6179364;28;20527;-52
2023/07/17 06:22:07;;;;;;;44.97;24.23;;;;;;;;;;6194702;28;20050;-54
2023/07/17 06:25:08;;;;;;;43.67;25.83;;;;;;;;;;6191916;28;20123;-55
2023/07/17 06:28:09;;;;;;;47.87;23.73;;;;;;;;;;6195206;28;20572;-55
2023/07/17 06:31:09;;;;;;;40.63;23.17;;;;;;;;;;6196605;28;20053;-56
2023/07/17 06:34:10;;;;;;;48.47;22.90;;;;;;;;;;6195973;28;20046;-55
2023/07/17 06:37:11;;;;;;;43.67;22.77;;;;;;;;;;6194223;28;20054;-55
2023/07/17 06:40:12;;;;;;;41.37;22.57;;;;;;;;;;6194866;28;20494;-55
2023/07/17 06:43:12;;;;;;;39.37;21.77;;;;;;;;;;6191668;28;20049;-54
2023/07/17 06:46:13;;;;;;;38.03;19.50;;;;;;;;;;6191598;28;20049;-55
2023/07/17 06:49:13;;;;;;;39.53;19.47;;;;;;;;;;6194037;28;20409;-52
2023/07/17 06:52:14;;;;;;;32.77;18.93;;;;;;;;;;6195191;28;20100;-55
2023/07/17 06:55:15;;;;;;;37.23;18.93;;;;;;;;;;6192671;28;20433;-56
2023/07/17 06:58:16;;;;;;;30.52;17.83;;;;;;;;;;6196931;28;20395;-52
2023/07/17 07:01:17;;;;;;;33.53;16.70;;;;;;;;;;6196190;28;20046;-54
2023/07/17 07:04:17;;;;;;;29.63;15.33;;;;;;;;;;6194247;28;20104;-55
2023/07/17 07:07:18;;;;;;;28.40;14.67;;;;;;;;;;6192860;28;20057;-53
2023/07/17 07:10:18;;;;;;;26.20;14.23;;;;;;;;;;6195325;28;20084;-51
2023/07/17 07:13:20;;;;;;;29.07;14.57;;;;;;;;;;6196448;28;20038;-57
2023/07/17 07:16:21;;;;;;;23.10;13.15;;;;;;;;;;6193889;28;20050;-53
2023/07/17 07:19:21;;;;;;;26.90;14.90;;;;;;;;;;6192337;28;20426;-51
2023/07/17 07:22:22;;;;;;;29.23;14.77;;;;;;;;;;6194615;28;20432;-53
2023/07/17 07:25:22;;;;;;;33.73;18.10;;;;;;;;;;6192202;28;20629;-54
2023/07/17 07:28:23;;;;;;;32.47;17.40;;;;;;;;;;6194605;28;20049;-53
2023/07/17 07:31:24;;;;;;;36.37;19.37;;;;;;;;;;6197288;28;20042;-55
2023/07/17 07:34:24;;;;;;;48.40;23.53;;;;;;;;;;6190355;28;20058;-57
2023/07/17 07:37:25;;;;;;;47.10;24.20;;;;;;;;;;6195558;28;20051;-60
2023/07/17 07:40:26;;;;;;;61.60;29.93;;;;;;;;;;6198395;28;20355;-57
2023/07/17 07:43:26;;;;;;;54.70;29.43;;;;;;;;;;6196479;28;20405;-59
2023/07/17 07:46:28;;;;;;;61.77;31.40;;;;;;;;;;6198012;28;20038;-60
2023/07/17 07:49:28;;;;;;;63.97;32.50;;;;;;;;;;6195494;28;20465;-58
2023/07/17 07:52:29;;;;;;;31.03;16.40;;;;;;;;;;6196114;28;20164;-60
2023/07/17 07:55:30;;;;;;;31.25;16.85;;;;;;;;;;6199217;28;20057;-58
2023/07/17 07:58:31;;;;;;;26.57;15.33;;;;;;;;;;6212135;28;20054;-56
2023/07/17 08:01:31;;;;;;;26.63;15.50;;;;;;;;;;6198130;28;20058;-59
2023/07/17 08:04:32;;;;;;;26.13;14.77;;;;;;;;;;6198561;28;20137;-58
2023/07/17 08:07:33;;;;;;;25.37;15.00;;;;;;;;;;6202575;28;20444;-59
2023/07/17 08:10:37;;;;;;;25.33;14.13;;;;;;;;;;6200118;28;20050;-60
2023/07/17 08:13:38;;;;;;;26.55;15.18;;;;;;;;;;6200036;28;20062;-60
2023/07/17 08:16:38;;;;;;;25.13;14.30;;;;;;;;;;6201104;28;20548;-57
2023/07/17 08:19:39;;;;;;;25.97;14.93;;;;;;;;;;6201986;28;20616;-59
2023/07/17 08:22:39;;;;;;;26.67;15.13;;;;;;;;;;6201411;28;20092;-60
2023/07/17 08:25:40;;;;;;;25.43;13.57;;;;;;;;;;6200451;28;20825;-59
2023/07/17 08:28:41;;;;;;;21.77;12.83;;;;;;;;;;6202438;28;20041;-60
2023/07/17 08:31:41;;;;;;;24.67;14.13;;;;;;;;;;6199675;28;20445;-60
2023/07/17 08:34:42;;;;;;;24.63;13.67;;;;;;;;;;6197380;28;20494;-60
2023/07/17 08:37:42;;;;;;;25.10;13.03;;;;;;;;;;6201205;28;20045;-60
2023/07/17 08:40:49;;;;;;;24.20;13.40;;;;;;;;;;6200399;28;20542;-59
2023/07/17 08:43:51;;;;;;;25.23;13.52;;;;;;;;;;6198127;28;20240;-59
2023/07/17 08:46:53;;;;;;;26.60;13.77;;;;;;;;;;6201904;28;20104;-60
2023/07/17 08:49:53;;;;;;;;;;;;;;;;;;6201613;28;20050;-60
2023/07/17 08:52:55;;;;;;;23.13;13.60;;;;;;;;;;6198719;28;20356;-59
2023/07/17 08:55:56;;;;;;;22.92;12.55;;;;;;;;;;6200094;28;20057;-59
2023/07/17 08:58:57;;;;;;;;;;;;;;;;;;6201353;28;20096;-59
2023/07/17 09:01:58;;;;;;;19.27;11.80;;;;;;;;;;6208995;28;19922;-60
2023/07/17 09:04:59;;;;;;;27.48;13.73;;;;;;;;;;6199123;28;20048;-59
2023/07/17 09:07:59;;;;;;;26.53;13.10;;;;;;;;;;6198336;28;20454;-60
2023/07/17 09:11:08;;;;;;;27.37;14.23;;;;;;;;;;6198723;28;20050;-59
2023/07/17 09:14:08;;;;;;;21.65;13.02;;;;;;;;;;6196880;28;20073;-58
2023/07/17 09:17:10;;;;;;;21.50;12.70;;;;;;;;;;6198814;28;20409;-59
2023/07/17 09:20:13;;;;;;;24.65;13.23;;;;;;;;;;6198207;28;20484;-60
2023/07/17 09:23:13;;;;;;;22.70;13.13;;;;;;;;;;6198687;28;20046;-60
2023/07/17 09:26:18;;;;;;;19.90;12.37;;;;;;;;;;6199270;28;20503;-59
2023/07/17 09:29:21;;;;;;;24.17;13.48;;;;;;;;;;6200764;28;20079;-59
2023/07/17 09:32:24;;;;;;;21.20;12.85;;;;;;;;;;6198965;28;20046;-60
2023/07/17 09:35:25;;;;;;;22.65;13.43;;;;;;;;;;6197735;28;20491;-60
2023/07/17 09:38:26;;;;;;;21.57;12.47;;;;;;;;;;6201565;28;20046;-58
2023/07/17 09:41:28;;;;;;;21.25;12.45;;;;;;;;;;6198119;28;20197;-57
2023/07/17 09:44:29;;;;;;;18.63;11.35;;;;;;;;;;6197000;28;20153;-57
2023/07/17 09:47:33;;;;;;;23.83;12.45;;;;;;;;;;6198245;28;20046;-59
2023/07/17 09:50:34;;;;;;;22.95;11.68;;;;;;;;;;6198670;28;20482;-59
2023/07/17 09:53:35;;;;;;;19.63;12.50;;;;;;;;;;6197734;28;20176;-59
2023/07/17 09:56:37;;;;;;;21.55;11.93;;;;;;;;;;6196564;28;20317;-59
2023/07/17 09:59:42;;;;;;;19.38;12.10;;;;;;;;;;6197851;28;20436;-60
2023/07/17 10:02:55;;;;;;;19.98;11.60;;;;;;;;;;6196595;28;20104;-60
2023/07/17 10:05:58;;;;;;;19.70;12.98;;;;;;;;;;6190472;28;20045;-61
2023/07/17 10:09:00;;;;;;;22.05;12.93;;;;;;;;;;6193154;28;20046;-59
2023/07/17 10:12:01;;;;;;;22.02;13.38;;;;;;;;;;6198828;28;20176;-57
2023/07/17 10:15:03;;;;;;;21.95;13.13;;;;;;;;;;6197284;28;20046;-60
2023/07/17 10:18:10;;;;;;;23.50;13.52;;;;;;;;;;6194939;28;20053;-59
2023/07/17 10:21:14;;;;;;;22.55;13.27;;;;;;;;;;6198075;28;20112;-59
2023/07/17 10:24:15;;;;;;;26.17;14.85;;;;;;;;;;6197796;28;20052;-58
2023/07/17 10:27:15;;;;;;;21.10;14.13;;;;;;;;;;6196404;28;20047;-59
2023/07/17 10:30:35;;;;;;;24.33;14.30;;;;;;;;;;6195309;28;20565;-58
2023/07/17 10:33:37;;;;;;;22.75;13.43;;;;;;;;;;6197873;28;20232;-59
2023/07/17 10:36:44;;;;;;;23.30;13.88;;;;;;;;;;6196607;28;20111;-61
2023/07/17 10:39:45;;;;;;;29.33;14.50;;;;;;;;;;6196419;28;20427;-59
2023/07/17 10:42:47;;;;;;;30.73;15.30;;;;;;;;;;6197694;28;20108;-59
2023/07/17 10:45:48;;;;;;;22.70;14.57;;;;;;;;;;6199469;28;20053;-59
2023/07/17 10:48:49;;;;;;;27.13;13.45;;;;;;;;;;6195317;28;20047;-57
2023/07/17 10:51:53;;;;;;;22.20;13.00;;;;;;;;;;6197251;28;20057;-59
2023/07/17 10:54:54;;;;;;;23.98;12.95;;;;;;;;;;6195108;28;20058;-57
2023/07/17 10:57:56;;;;;;;22.30;12.43;;;;;;;;;;6190180;28;20478;-60
2023/07/17 11:00:57;;;;;;;21.30;12.60;;;;;;;;;;6196055;28;20038;-57
2023/07/17 11:03:57;;;;;;;23.47;11.80;;;;;;;;;;6198682;28;20043;-56
2023/07/17 11:07:15;;;;;;;20.20;11.32;;;;;;;;;;6198227;28;20525;-60
2023/07/17 11:10:16;;;;;;;22.73;12.07;;;;;;;;;;6198895;28;20154;-59
2023/07/17 11:13:17;;;;;;;23.70;11.97;;;;;;;;;;6195911;28;20493;-60
2023/07/17 11:16:21;;;;;;;20.53;11.67;;;;;;;;;;6198297;28;20057;-59
2023/07/17 11:19:21;;;;;;;20.65;11.50;;;;;;;;;;6196008;28;20038;-60
2023/07/17 11:22:29;;;;;;;21.88;11.32;;;;;;;;;;6197031;28;20072;-58
2023/07/17 11:25:32;;;;;;;20.27;11.43;;;;;;;;;;6198278;28;20081;-60
2023/07/17 11:28:33;;;;;;;23.90;12.05;;;;;;;;;;6198423;28;20053;-60
2023/07/17 11:31:34;;;;;;;19.53;11.40;;;;;;;;;;6195715;28;20410;-56
2023/07/17 11:34:36;;;;;;;29.40;13.75;;;;;;;;;;6196155;28;20184;-57
2023/07/17 11:37:38;;;;;;;;;;;;;;;;;;6201550;28;20061;-60
2023/07/17 11:40:48;;;;;;;27.40;13.75;;;;;;;;;;6198370;28;19928;-60
2023/07/17 11:43:56;;;;;;;23.02;12.93;;;;;;;;;;6198095;28;20050;-59
2023/07/17 11:47:03;;;;;;;28.25;14.10;;;;;;;;;;6200287;28;20141;-59
2023/07/17 11:50:05;;;;;;;26.73;13.25;;;;;;;;;;6200848;28;20315;-60
2023/07/17 11:53:16;;;;;;;26.98;14.02;;;;;;;;;;6199867;28;20054;-56
2023/07/17 11:56:19;;;;;;;25.47;13.87;;;;;;;;;;6208711;28;20092;-59
2023/07/17 11:59:22;;;;;;;25.70;13.98;;;;;;;;;;6205493;28;21358;-57
2023/07/17 12:02:22;;;;;;;27.30;13.80;;;;;;;;;;6208161;28;20058;-60
2023/07/17 12:05:23;;;;;;;21.33;12.80;;;;;;;;;;6200631;28;20065;-59
2023/07/17 12:08:23;;;;;;;31.47;13.50;;;;;;;;;;6202095;28;20054;-60
2023/07/17 12:11:24;;;;;;;22.58;12.38;;;;;;;;;;6200423;28;20108;-59
2023/07/17 12:14:25;;;;;;;20.70;11.47;;;;;;;;;;6199786;28;20054;-58
2023/07/17 12:17:25;;;;;;;26.13;12.63;;;;;;;;;;6199511;28;20056;-60
2023/07/17 12:20:27;;;;;;;25.43;13.27;;;;;;;;;;6201599;28;20050;-59
2023/07/17 12:23:27;;;;;;;;;;;;;;;;;;6212217;28;20046;-59
2023/07/17 12:26:28;;;;;;;27.55;15.30;;;;;;;;;;6210862;28;19930;-59
2023/07/17 12:29:28;;;;;;;34.60;16.23;;;;;;;;;;6211302;28;20100;-59
2023/07/17 12:32:29;;;;;;;31.07;15.70;;;;;;;;;;6210040;28;20046;-60
2023/07/17 12:35:30;;;;;;;29.07;15.17;;;;;;;;;;6211714;28;20049;-58
2023/07/17 12:38:30;;;;;;;31.53;16.10;;;;;;;;;;6210620;28;20050;-56
2023/07/17 12:41:31;;;;;;;29.27;16.70;;;;;;;;;;6207584;28;20085;-60
2023/07/17 12:44:33;;;;;;;31.00;16.77;;;;;;;;;;6210097;28;20054;-56
2023/07/17 12:47:33;;;;;;;32.45;16.80;;;;;;;;;;6212302;28;20483;-57
2023/07/17 12:50:35;;;;;;;31.63;16.83;;;;;;;;;;6211113;28;20050;-59
2023/07/17 12:53:35;;;;;;;27.73;16.30;;;;;;;;;;6206346;28;20531;-60
2023/07/17 12:56:36;;;;;;;29.87;16.33;;;;;;;;;;6212198;28;20054;-60
2023/07/17 12:59:36;;;;;;;33.27;17.73;;;;;;;;;;6211770;28;20065;-59
2023/07/17 13:02:37;;;;;;;32.33;17.10;;;;;;;;;;6209852;28;20053;-60
2023/07/17 13:05:38;;;;;;;32.75;17.33;;;;;;;;;;6206300;28;20050;-59
2023/07/17 13:08:39;;;;;;;34.67;17.37;;;;;;;;;;6217524;28;20420;-60
2023/07/17 13:11:39;;;;;;;31.83;18.50;;;;;;;;;;6209532;28;20552;-61
2023/07/17 13:14:40;;;;;;;32.37;16.67;;;;;;;;;;6200734;28;20039;-61
2023/07/17 13:17:41;;;;;;;26.37;15.40;;;;;;;;;;6198740;28;20046;-60
2023/07/17 13:20:41;;;;;;;31.87;17.27;;;;;;;;;;6196758;28;20414;-60
2023/07/17 13:23:42;;;;;;;29.40;17.53;;;;;;;;;;6195854;28;20133;-57
2023/07/17 13:26:42;;;;;;;31.73;17.93;;;;;;;;;;6196721;28;20082;-58
2023/07/17 13:29:43;;;;;;;30.90;16.47;;;;;;;;;;6195845;28;20662;-59
2023/07/17 13:32:44;;;;;;;30.23;17.63;;;;;;;;;;6196535;28;20121;-58
2023/07/17 13:35:44;;;;;;;28.93;16.20;;;;;;;;;;6197913;28;20137;-58
2023/07/17 13:38:45;;;;;;;30.60;16.33;;;;;;;;;;6198707;28;20146;-58
2023/07/17 13:41:48;;;;;;;29.50;17.37;;;;;;;;;;6194262;28;20062;-59
2023/07/17 13:44:48;;;;;;;33.67;17.77;;;;;;;;;;6197999;28;20069;-59
2023/07/17 13:47:49;;;;;;;31.60;19.03;;;;;;;;;;6195211;28;20046;-58
2023/07/17 13:50:49;;;;;;;34.57;18.50;;;;;;;;;;6196950;28;20050;-58
2023/07/17 13:53:50;;;;;;;41.40;21.47;;;;;;;;;;6195115;28;20042;-58
2023/07/17 13:56:51;;;;;;;40.63;21.67;;;;;;;;;;6195122;28;20164;-59
2023/07/17 13:59:51;;;;;;;38.53;21.33;;;;;;;;;;6197922;28;20069;-58
2023/07/17 14:02:52;;;;;;;41.30;23.43;;;;;;;;;;6197519;28;20116;-58
2023/07/17 14:05:53;;;;;;;46.43;24.77;;;;;;;;;;6199903;28;20497;-59
2023/07/17 14:08:53;;;;;;;47.10;25.38;;;;;;;;;;6197215;28;20052;-55
2023/07/17 14:11:54;;;;;;;50.77;26.33;;;;;;;;;;6196516;28;20482;-58
2023/07/17 14:14:55;;;;;;;43.97;23.83;;;;;;;;;;6194988;28;20695;-60
2023/07/17 14:17:55;;;;;;;49.63;25.30;;;;;;;;;;6196554;28;20046;-60
2023/07/17 14:20:56;;;;;;;43.17;24.70;;;;;;;;;;6197414;28;20395;-59
2023/07/17 14:23:57;;;;;;;40.75;24.92;;;;;;;;;;6194612;28;20596;-62
2023/07/17 14:26:57;;;;;;;42.73;24.43;;;;;;;;;;6194851;28;20403;-60
2023/07/17 14:29:58;;;;;;;46.77;24.47;;;;;;;;;;6196333;28;20122;-61
2023/07/17 14:32:58;;;;;;;41.43;24.13;;;;;;;;;;6216873;28;20489;-61
2023/07/17 14:35:59;;;;;;;44.07;25.37;;;;;;;;;;6213951;28;20046;-58
2023/07/17 14:39:01;;;;;;;42.10;24.37;;;;;;;;;;6207597;28;20061;-59
2023/07/17 14:42:03;;;;;;;52.78;27.33;;;;;;;;;;6197125;28;20307;-61
2023/07/17 14:45:05;;;;;;;;;;;;;;;;;;6198849;28;20049;-62
2023/07/17 14:48:06;;;;;;;48.00;26.75;;;;;;;;;;6196776;28;20394;-61
2023/07/17 14:51:06;;;;;;;45.17;25.73;;;;;;;;;;6194699;28;20129;-62
2023/07/17 14:54:07;;;;;;;45.20;23.43;;;;;;;;;;6195605;28;21490;-62
2023/07/17 14:57:08;;;;;;;44.90;25.57;;;;;;;;;;6196784;28;20417;-60
2023/07/17 15:00:09;;;;;;;43.40;24.05;;;;;;;;;;6197364;28;20560;-61
2023/07/17 15:03:10;;;;;;;47.00;25.13;;;;;;;;;;6196142;28;20047;-61
2023/07/17 15:06:11;;;;;;;43.93;25.10;;;;;;;;;;6195072;28;20137;-60
2023/07/17 15:09:12;;;;;;;43.05;23.20;;;;;;;;;;6197831;28;20137;-60
2023/07/17 15:12:12;;;;;;;43.50;23.67;;;;;;;;;;6200113;28;20073;-59
2023/07/17 15:15:13;;;;;;;41.47;23.60;;;;;;;;;;6199681;28;20531;-59
2023/07/17 15:18:13;;;;;;;41.03;23.20;;;;;;;;;;6203164;28;20049;-57
2023/07/17 15:21:14;;;;;;;44.53;24.20;;;;;;;;;;6200830;28;20046;-59
2023/07/17 15:24:15;;;;;;;48.93;26.30;;;;;;;;;;6201396;28;20061;-57
2023/07/17 15:27:15;;;;;;;48.07;26.93;;;;;;;;;;6201009;28;20155;-59
2023/07/17 15:30:16;;;;;;;47.80;25.73;;;;;;;;;;6204534;28;20054;-55
2023/07/17 15:33:17;;;;;;;47.23;28.00;;;;;;;;;;6200647;28;20073;-58
2023/07/17 15:36:17;;;;;;;49.47;27.17;;;;;;;;;;6202748;28;20048;-59
2023/07/17 15:39:18;;;;;;;52.33;25.67;;;;;;;;;;6199108;28;20034;-57
2023/07/17 15:42:19;;;;;;;55.13;26.77;;;;;;;;;;6193997;28;20510;-60
2023/07/17 15:45:21;;;;;;;51.67;27.13;;;;;;;;;;6194934;28;20042;-61
2023/07/17 15:48:22;;;;;;;51.40;28.08;;;;;;;;;;6203002;28;21237;-58
2023/07/17 15:51:23;;;;;;;61.67;29.03;;;;;;;;;;6198692;28;20058;-55
2023/07/17 15:54:23;;;;;;;57.77;27.67;;;;;;;;;;6198399;28;20042;-62
2023/07/17 15:57:24;;;;;;;49.00;26.40;;;;;;;;;;6201756;28;20295;-60
2023/07/17 16:00:27;;;;;;;47.10;25.00;;;;;;;;;;6195571;28;20140;-61
2023/07/17 16:03:28;;;;;;;45.13;24.85;;;;;;;;;;6199037;28;20042;-58
2023/07/17 16:06:29;;;;;;;39.47;23.30;;;;;;;;;;6203713;28;20088;-60
2023/07/17 16:09:29;;;;;;;40.43;22.30;;;;;;;;;;6196882;28;20475;-62
2023/07/17 16:12:31;;;;;;;37.92;22.25;;;;;;;;;;6195143;28;20050;-62
2023/07/17 16:15:31;;;;;;;38.78;21.60;;;;;;;;;;6198247;28;20060;-63
2023/07/17 16:18:33;;;;;;;38.90;21.70;;;;;;;;;;6194681;28;20077;-57
2023/07/17 16:21:33;;;;;;;38.53;20.52;;;;;;;;;;6194504;28;20085;-62
2023/07/17 16:24:34;;;;;;;37.43;19.63;;;;;;;;;;6199715;28;20509;-61
2023/07/17 16:27:34;;;;;;;33.97;19.77;;;;;;;;;;6193768;28;20647;-61
2023/07/17 16:30:35;;;;;;;34.10;19.80;;;;;;;;;;6193644;28;20137;-63
2023/07/17 16:33:36;;;;;;;31.57;19.40;;;;;;;;;;6182782;28;21229;-64
2023/07/17 16:36:36;;;;;;;33.47;19.53;;;;;;;;;;6198487;28;20578;-61
2023/07/17 16:39:38;;;;;;;31.20;19.33;;;;;;;;;;6200319;28;20054;-61
2023/07/17 16:42:39;;;;;;;34.95;19.55;;;;;;;;;;6176175;28;20778;-60
2023/07/17 16:45:39;;;;;;;33.73;19.70;;;;;;;;;;6195119;28;20068;-61
2023/07/17 16:48:41;;;;;;;38.43;19.83;;;;;;;;;;6180955;28;20080;-61
2023/07/17 16:51:41;;;;;;;36.65;19.85;;;;;;;;;;6197141;28;20197;-61
2023/07/17 16:54:42;;;;;;;33.67;19.58;;;;;;;;;;6197664;28;20061;-61
2023/07/17 16:57:43;;;;;;;31.80;17.40;;;;;;;;;;6199194;28;20065;-62
2023/07/17 17:00:43;;;;;;;36.40;19.47;;;;;;;;;;6176698;28;20057;-61
2023/07/17 17:03:44;;;;;;;26.87;17.23;;;;;;;;;;6134751;28;1116052;-63
2023/07/17 17:06:44;;;;;;;32.13;17.97;;;;;;;;;;6198641;28;20046;-60
2023/07/17 17:09:45;;;;;;;34.53;18.20;;;;;;;;;;6198825;28;20316;-56
2023/07/17 17:12:46;;;;;;;28.63;16.98;;;;;;;;;;6197722;28;20143;-60
2023/07/17 17:15:46;;;;;;;30.97;16.80;;;;;;;;;;6199843;28;20069;-61
2023/07/17 17:18:47;;;;;;;29.37;16.67;;;;;;;;;;6197070;28;20049;-62
2023/07/17 17:21:47;;;;;;;32.83;16.30;;;;;;;;;;6192782;28;20500;-59
2023/07/17 17:24:48;;;;;;;29.87;15.70;;;;;;;;;;6196061;28;20518;-57
2023/07/17 17:27:48;;;;;;;30.90;15.90;;;;;;;;;;6201375;28;20034;-60
2023/07/17 17:30:49;;;;;;;32.90;16.23;;;;;;;;;;6194796;28;20060;-62
2023/07/17 17:33:50;;;;;;;27.23;15.40;;;;;;;;;;6200362;28;20299;-61
2023/07/17 17:36:50;;;;;;;29.80;16.37;;;;;;;;;;6194553;28;20070;-61
2023/07/17 17:39:51;;;;;;;32.50;16.63;;;;;;;;;;6192988;28;20057;-61